createdAt,value
2022-12-18T00:01:41.456Z,-5.45
2022-12-18T00:04:19.522Z,-5.42
2022-12-18T00:06:57.351Z,-5.37
2022-12-18T00:09:39.457Z,-5.34
2022-12-18T00:14:44.411Z,-5.26
2022-12-18T00:17:15.716Z,-5.25
2022-12-18T00:19:55.713Z,-5.23
2022-12-18T00:22:25.267Z,-5.22
2022-12-18T00:24:55.552Z,-5.24
2022-12-18T00:27:25.726Z,-5.24
2022-12-18T00:29:53.611Z,-5.25
2022-12-18T00:32:22.220Z,-5.25
2022-12-18T00:34:50.274Z,-5.24
2022-12-18T00:37:20.197Z,-5.22
2022-12-18T00:39:52.612Z,-5.21
2022-12-18T00:42:40.136Z,-5.21
2022-12-18T00:45:12.716Z,-5.20
2022-12-18T00:47:42.505Z,-5.17
2022-12-18T00:50:11.811Z,-5.16
2022-12-18T00:52:40.156Z,-5.17
2022-12-18T00:55:09.361Z,-5.18
2022-12-18T00:57:37.169Z,-5.17
2022-12-18T01:00:08.797Z,-5.15
2022-12-18T01:02:37.304Z,-5.15
2022-12-18T01:05:18.534Z,-5.12
2022-12-18T01:07:46.511Z,-5.11
2022-12-18T01:10:14.535Z,-5.09
2022-12-18T01:12:44.021Z,-5.08
2022-12-18T01:15:16.875Z,-5.06
2022-12-18T01:17:44.585Z,-5.04
2022-12-18T01:20:14.131Z,-5.03
2022-12-18T01:22:42.840Z,-5.03
2022-12-18T01:25:15.421Z,-5.03
2022-12-18T01:27:45.863Z,-5.03
2022-12-18T01:30:17.230Z,-5.03
2022-12-18T01:32:44.976Z,-5.01
2022-12-18T01:35:14.294Z,-5.00
2022-12-18T01:37:43.584Z,-4.98
2022-12-18T01:40:15.381Z,-4.96
2022-12-18T01:42:43.794Z,-4.96
2022-12-18T01:45:28.667Z,-4.95
2022-12-18T01:47:58.975Z,-4.94
2022-12-18T01:50:43.281Z,-4.92
2022-12-18T01:53:15.018Z,-4.91
2022-12-18T01:55:49.409Z,-4.91
2022-12-18T01:58:18.618Z,-4.91
2022-12-18T02:00:46.716Z,-4.92
2022-12-18T02:03:15.980Z,-4.93
2022-12-18T02:05:49.800Z,-4.94
2022-12-18T02:08:22.537Z,-4.93
2022-12-18T02:11:04.145Z,-4.93
2022-12-18T02:13:43.239Z,-4.95
2022-12-18T02:16:26.214Z,-4.96
2022-12-18T02:18:59.917Z,-4.93
2022-12-18T02:21:37.455Z,-4.91
2022-12-18T02:24:19.392Z,-4.91
2022-12-18T02:26:57.613Z,-4.89
2022-12-18T02:29:31.503Z,-4.89
2022-12-18T02:32:05.804Z,-4.87
2022-12-18T02:34:37.690Z,-4.86
2022-12-18T02:37:09.808Z,-4.84
2022-12-18T02:39:42.709Z,-4.82
2022-12-18T02:42:14.857Z,-4.80
2022-12-18T02:44:48.562Z,-4.79
2022-12-18T02:47:27.282Z,-4.79
2022-12-18T02:50:05.600Z,-4.80
2022-12-18T02:52:40.532Z,-4.82
2022-12-18T02:55:19.472Z,-4.81
2022-12-18T02:57:55.853Z,-4.82
2022-12-18T03:00:34.053Z,-4.84
2022-12-18T03:03:10.744Z,-4.86
2022-12-18T03:05:46.741Z,-4.89
2022-12-18T03:08:21.104Z,-4.90
2022-12-18T03:10:56.421Z,-4.90
2022-12-18T03:13:36.896Z,-4.92
2022-12-18T03:16:10.122Z,-4.89
2022-12-18T03:18:44.198Z,-4.86
2022-12-18T03:21:15.185Z,-4.82
2022-12-18T03:23:49.395Z,-4.82
2022-12-18T03:26:28.245Z,-4.80
2022-12-18T03:29:12.310Z,-4.80
2022-12-18T03:31:43.732Z,-4.84
2022-12-18T03:34:18.448Z,-4.86
2022-12-18T03:36:49.691Z,-4.87
2022-12-18T03:39:17.815Z,-4.87
2022-12-18T03:41:57.268Z,-4.84
2022-12-18T03:44:43.325Z,-4.81
2022-12-18T03:47:20.150Z,-4.78
2022-12-18T03:49:59.213Z,-4.74
2022-12-18T03:52:57.431Z,-4.73
2022-12-18T03:55:29.558Z,-4.74
2022-12-18T03:58:07.206Z,-4.77
2022-12-18T04:00:48.851Z,-4.84
2022-12-18T04:03:22.660Z,-4.87
2022-12-18T04:06:03.908Z,-4.86
2022-12-18T04:08:43.712Z,-4.89
2022-12-18T04:11:15.696Z,-4.89
2022-12-18T04:13:45.089Z,-4.89
2022-12-18T04:16:19.458Z,-4.87
2022-12-18T04:18:47.991Z,-4.86
2022-12-18T04:21:15.936Z,-4.90
2022-12-18T04:23:43.815Z,-4.94
2022-12-18T04:26:12.569Z,-4.95
2022-12-18T04:28:54.465Z,-4.96
2022-12-18T04:31:26.341Z,-4.94
2022-12-18T04:33:54.112Z,-4.94
2022-12-18T04:36:23.925Z,-4.94
2022-12-18T04:38:51.531Z,-4.97
2022-12-18T04:41:22.145Z,-4.96
2022-12-18T04:43:51.389Z,-4.95
2022-12-18T04:46:20.832Z,-4.96
2022-12-18T04:48:51.363Z,-4.97
2022-12-18T04:51:24.644Z,-4.98
2022-12-18T04:53:58.258Z,-4.96
2022-12-18T04:56:26.286Z,-4.94
2022-12-18T04:58:54.300Z,-4.93
2022-12-18T05:01:22.521Z,-4.93
2022-12-18T05:03:52.970Z,-4.92
2022-12-18T05:06:21.376Z,-4.91
2022-12-18T05:09:01.408Z,-4.93
2022-12-18T05:11:31.123Z,-4.98
2022-12-18T05:13:58.770Z,-5.01
2022-12-18T05:16:31.775Z,-5.02
2022-12-18T05:19:24.740Z,-5.02
2022-12-18T05:21:53.204Z,-5.01
2022-12-18T05:24:22.712Z,-5.00
2022-12-18T05:26:53.138Z,-5.00
2022-12-18T05:29:21.369Z,-5.00
2022-12-18T05:31:49.985Z,-5.01
2022-12-18T05:34:22.588Z,-5.03
2022-12-18T05:36:52.607Z,-5.06
2022-12-18T05:39:40.739Z,-5.07
2022-12-18T05:42:09.022Z,-5.09
2022-12-18T05:44:36.677Z,-5.11
2022-12-18T05:47:04.708Z,-5.12
2022-12-18T05:49:32.772Z,-5.11
2022-12-18T05:52:01.249Z,-5.10
2022-12-18T05:54:30.657Z,-5.10
2022-12-18T05:57:03.543Z,-5.11
2022-12-18T05:59:32.550Z,-5.14
2022-12-18T06:02:00.501Z,-5.20
2022-12-18T06:04:29.663Z,-5.25
2022-12-18T06:06:59.140Z,-5.26
2022-12-18T06:09:32.753Z,-5.26
2022-12-18T06:12:09.334Z,-5.25
2022-12-18T06:14:37.651Z,-5.26
2022-12-18T06:17:05.271Z,-5.25
2022-12-18T06:19:32.849Z,-5.25
2022-12-18T06:22:00.471Z,-5.28
2022-12-18T06:24:33.596Z,-5.32
2022-12-18T06:27:03.272Z,-5.36
2022-12-18T06:29:34.403Z,-5.40
2022-12-18T06:32:02.946Z,-5.41
2022-12-18T06:34:30.777Z,-5.39
2022-12-18T06:37:00.408Z,-5.39
2022-12-18T06:39:37.013Z,-5.37
2022-12-18T06:42:06.175Z,-5.36
2022-12-18T06:44:34.628Z,-5.35
2022-12-18T06:47:19.859Z,-5.31
2022-12-18T06:49:49.366Z,-5.29
2022-12-18T06:52:39.469Z,-5.27
2022-12-18T06:55:14.118Z,-5.27
2022-12-18T06:57:46.143Z,-5.25
2022-12-18T07:00:27.013Z,-5.24
2022-12-18T07:02:56.804Z,-5.23
2022-12-18T07:05:37.118Z,-5.24
2022-12-18T07:08:05.275Z,-5.25
2022-12-18T07:10:33.358Z,-5.28
2022-12-18T07:13:01.170Z,-5.30
2022-12-18T07:15:31.015Z,-5.30
2022-12-18T07:18:01.064Z,-5.33
2022-12-18T07:20:34.545Z,-5.34
2022-12-18T07:23:05.418Z,-5.33
2022-12-18T07:25:35.333Z,-5.30
2022-12-18T07:28:02.979Z,-5.27
2022-12-18T07:30:31.283Z,-5.24
2022-12-18T07:32:59.137Z,-5.24
2022-12-18T07:35:26.722Z,-5.21
2022-12-18T07:37:54.711Z,-5.19
2022-12-18T07:40:22.354Z,-5.18
2022-12-18T07:42:50.171Z,-5.13
2022-12-18T07:45:20.427Z,-5.09
2022-12-18T07:47:48.145Z,-5.10
2022-12-18T07:50:16.866Z,-5.11
2022-12-18T07:52:44.731Z,-5.09
2022-12-18T07:55:13.021Z,-5.08
2022-12-18T07:57:50.796Z,-5.06
2022-12-18T08:00:20.143Z,-5.04
2022-12-18T08:02:49.598Z,-5.02
2022-12-18T08:05:17.760Z,-4.98
2022-12-18T08:07:45.466Z,-4.92
2022-12-18T08:10:13.199Z,-4.85
2022-12-18T08:12:40.913Z,-4.84
2022-12-18T08:15:09.923Z,-4.81
2022-12-18T08:17:41.566Z,-4.79
2022-12-18T08:20:11.582Z,-4.76
2022-12-18T08:22:40.628Z,-4.74
2022-12-18T08:25:09.370Z,-4.73
2022-12-18T08:27:38.865Z,-4.77
2022-12-18T08:30:09.432Z,-4.75
2022-12-18T08:32:37.016Z,-4.71
2022-12-18T08:35:06.712Z,-4.71
2022-12-18T08:37:34.251Z,-4.67
2022-12-18T08:40:01.830Z,-4.64
2022-12-18T08:42:47.768Z,-4.59
2022-12-18T08:45:17.142Z,-4.54
2022-12-18T08:47:45.090Z,-4.51
2022-12-18T08:50:15.099Z,-4.47
2022-12-18T08:52:42.931Z,-4.43
2022-12-18T08:55:13.636Z,-4.38
2022-12-18T08:57:41.334Z,-4.31
2022-12-18T09:00:13.433Z,-4.26
2022-12-18T09:02:42.147Z,-4.22
2022-12-18T09:05:10.704Z,-4.18
2022-12-18T09:07:40.775Z,-4.15
2022-12-18T09:10:09.422Z,-4.14
2022-12-18T09:12:37.150Z,-4.13
2022-12-18T09:15:06.989Z,-4.16
2022-12-18T09:17:35.460Z,-4.19
2022-12-18T09:20:03.156Z,-4.25
2022-12-18T09:22:31.666Z,-4.29
2022-12-18T09:25:00.012Z,-4.28
2022-12-18T09:27:27.854Z,-4.26
2022-12-18T09:29:56.930Z,-4.22
2022-12-18T09:32:24.552Z,-4.22
2022-12-18T09:34:52.233Z,-4.23
2022-12-18T09:37:20.885Z,-4.19
2022-12-18T09:39:49.038Z,-4.12
2022-12-18T09:42:29.354Z,-4.09
2022-12-18T09:44:57.270Z,-4.08
2022-12-18T09:47:30.350Z,-4.07
2022-12-18T09:50:06.795Z,-3.99
2022-12-18T09:52:39.518Z,-3.91
2022-12-18T09:55:18.951Z,-3.90
2022-12-18T09:57:53.042Z,-3.89
2022-12-18T10:00:23.606Z,-3.89
2022-12-18T10:02:57.900Z,-3.85
2022-12-18T10:05:42.278Z,-3.91
2022-12-18T10:08:19.867Z,-4.00
2022-12-18T10:10:52.515Z,-4.00
2022-12-18T10:13:29.489Z,-4.01
2022-12-18T10:16:10.658Z,-3.99
2022-12-18T10:18:58.462Z,-3.98
2022-12-18T10:21:33.204Z,-3.92
2022-12-18T10:24:14.170Z,-3.94
2022-12-18T10:26:42.516Z,-4.01
2022-12-18T10:29:15.056Z,-4.01
2022-12-18T10:31:45.659Z,-3.94
2022-12-18T10:34:13.771Z,-3.89
2022-12-18T10:36:44.242Z,-3.88
2022-12-18T10:39:19.966Z,-3.97
2022-12-18T10:41:50.716Z,-4.01
2022-12-18T10:44:21.166Z,-3.99
2022-12-18T10:46:51.109Z,-4.04
2022-12-18T10:49:33.261Z,-4.07
2022-12-18T10:52:22.556Z,-4.01
2022-12-18T10:54:52.999Z,-4.03
2022-12-18T10:57:35.498Z,-4.07
2022-12-18T11:00:24.563Z,-4.06
2022-12-18T11:02:52.866Z,-3.97
2022-12-18T11:05:30.462Z,-3.99
2022-12-18T11:08:00.245Z,-3.98
2022-12-18T11:10:32.464Z,-3.99
2022-12-18T11:13:16.951Z,-4.05
2022-12-18T11:15:45.397Z,-4.05
2022-12-18T11:18:23.211Z,-4.03
2022-12-18T11:20:58.825Z,-4.02
2022-12-18T11:23:27.887Z,-4.00
2022-12-18T11:25:58.575Z,-3.97
2022-12-18T11:28:36.696Z,-3.95
2022-12-18T11:31:21.549Z,-3.95
2022-12-18T11:34:26.895Z,-3.99
2022-12-18T11:36:46.730Z,-4.04
2022-12-18T11:39:20.444Z,-4.03
2022-12-18T11:42:11.873Z,-4.00
2022-12-18T11:44:49.000Z,-3.93
2022-12-18T11:47:20.258Z,-3.87
2022-12-18T11:49:52.494Z,-3.89
2022-12-18T11:52:24.490Z,-3.88
2022-12-18T11:54:53.896Z,-3.85
2022-12-18T11:57:35.250Z,-3.86
2022-12-18T12:00:12.576Z,-3.90
2022-12-18T12:03:21.631Z,-3.97
2022-12-18T12:06:03.264Z,-4.06
2022-12-18T12:08:42.630Z,-4.05
2022-12-18T12:11:21.124Z,-4.03
2022-12-18T12:14:00.529Z,-3.97
2022-12-18T12:16:37.087Z,-3.87
2022-12-18T12:19:22.944Z,-3.85
2022-12-18T12:21:58.973Z,-3.90
2022-12-18T12:24:39.980Z,-3.93
2022-12-18T12:27:18.052Z,-3.88
2022-12-18T12:29:56.640Z,-3.91
2022-12-18T12:32:43.846Z,-3.95
2022-12-18T12:35:25.938Z,-3.92
2022-12-18T12:38:05.026Z,-3.91
2022-12-18T12:40:58.529Z,-3.91
2022-12-18T12:43:35.699Z,-3.96
2022-12-18T12:46:11.787Z,-3.99
2022-12-18T12:48:47.201Z,-4.02
2022-12-18T12:51:20.537Z,-4.02
2022-12-18T12:53:49.164Z,-4.02
2022-12-18T12:56:19.127Z,-4.07
2022-12-18T12:59:00.323Z,-4.10
2022-12-18T13:01:37.870Z,-4.13
2022-12-18T13:04:21.502Z,-4.11
2022-12-18T13:06:57.479Z,-4.11
2022-12-18T13:09:25.199Z,-4.15
2022-12-18T13:12:11.150Z,-4.18
2022-12-18T13:14:41.687Z,-4.25
2022-12-18T13:17:32.147Z,-4.24
2022-12-18T13:20:13.794Z,-4.31
2022-12-18T13:22:46.259Z,-4.35
2022-12-18T13:25:37.641Z,-4.36
2022-12-18T13:28:13.756Z,-4.38
2022-12-18T13:30:57.446Z,-4.44
2022-12-18T13:36:37.371Z,-4.56
2022-12-18T13:39:28.930Z,-4.60
2022-12-18T13:42:58.370Z,-4.67
2022-12-18T13:45:48.849Z,-4.70
2022-12-18T13:48:24.246Z,-4.71
2022-12-18T13:50:58.058Z,-4.73
2022-12-18T13:53:31.848Z,-4.77
2022-12-18T13:55:59.957Z,-4.81
2022-12-18T13:58:28.437Z,-4.83
2022-12-18T14:00:57.048Z,-4.82
2022-12-18T14:03:27.005Z,-4.81
2022-12-18T14:05:59.282Z,-4.80
2022-12-18T14:08:32.936Z,-4.80
2022-12-18T14:11:03.066Z,-4.85
2022-12-18T14:13:34.875Z,-4.90
2022-12-18T14:16:04.732Z,-4.91
2022-12-18T14:18:43.987Z,-4.94
2022-12-18T14:21:25.078Z,-4.98
2022-12-18T14:24:13.915Z,-5.04
2022-12-18T14:26:42.504Z,-5.11
2022-12-18T14:29:27.683Z,-5.19
2022-12-18T14:32:22.518Z,-5.22
2022-12-18T14:34:52.502Z,-5.23
2022-12-18T14:37:24.868Z,-5.26
2022-12-18T14:40:05.767Z,-5.28
2022-12-18T14:42:37.223Z,-5.31
2022-12-18T14:45:41.595Z,-5.35
2022-12-18T14:48:33.840Z,-5.41
2022-12-18T14:51:07.528Z,-5.44
2022-12-18T14:53:42.205Z,-5.46
2022-12-18T14:56:21.076Z,-5.47
2022-12-18T14:58:54.302Z,-5.49
2022-12-18T15:01:27.968Z,-5.52
2022-12-18T15:04:00.236Z,-5.53
2022-12-18T15:06:35.306Z,-5.54
2022-12-18T15:09:05.386Z,-5.53
2022-12-18T15:11:44.632Z,-5.53
2022-12-18T15:14:38.054Z,-5.61
2022-12-18T15:17:18.145Z,-5.67
2022-12-18T15:19:47.669Z,-5.71
2022-12-18T15:22:22.293Z,-5.75
2022-12-18T15:24:51.080Z,-5.79
2022-12-18T15:27:27.751Z,-5.83
2022-12-18T15:30:18.850Z,-5.85
2022-12-18T15:32:47.690Z,-5.88
2022-12-18T15:35:19.365Z,-5.91
2022-12-18T15:37:52.753Z,-5.92
2022-12-18T15:40:27.637Z,-5.92
2022-12-18T15:43:16.721Z,-5.92
2022-12-18T15:45:45.488Z,-5.95
2022-12-18T15:48:38.349Z,-5.98
2022-12-18T15:54:13.080Z,-6.13
2022-12-18T15:57:03.493Z,-6.15
2022-12-18T15:59:34.932Z,-6.15
2022-12-18T16:02:25.177Z,-6.15
2022-12-18T16:05:17.550Z,-6.17
2022-12-18T16:07:51.031Z,-6.21
2022-12-18T16:10:51.805Z,-6.25
2022-12-18T16:13:26.545Z,-6.28
2022-12-18T16:16:15.521Z,-6.33
2022-12-18T16:19:06.433Z,-6.37
2022-12-18T16:21:59.514Z,-6.41
2022-12-18T16:24:45.040Z,-6.43
2022-12-18T16:27:38.954Z,-6.48
2022-12-18T16:30:36.096Z,-6.51
2022-12-18T16:33:22.370Z,-6.55
2022-12-18T16:36:22.606Z,-6.59
2022-12-18T16:39:14.127Z,-6.63
2022-12-18T16:42:11.261Z,-6.68
2022-12-18T16:44:46.224Z,-6.75
2022-12-18T16:47:48.282Z,-6.83
2022-12-18T16:50:23.394Z,-6.91
2022-12-18T16:53:20.618Z,-7.01
2022-12-18T16:56:00.551Z,-7.09
2022-12-18T16:58:52.867Z,-7.18
2022-12-18T17:01:41.910Z,-7.24
2022-12-18T17:04:31.101Z,-7.30
2022-12-18T17:07:23.573Z,-7.34
2022-12-18T17:10:37.184Z,-7.42
2022-12-18T17:13:05.823Z,-7.48
2022-12-18T17:16:03.348Z,-7.51
2022-12-18T17:18:59.517Z,-7.56
2022-12-18T17:22:03.007Z,-7.59
2022-12-18T17:24:58.978Z,-7.64
2022-12-18T17:27:53.940Z,-7.71
2022-12-18T17:30:48.375Z,-7.77
2022-12-18T17:33:37.861Z,-7.82
2022-12-18T17:36:35.533Z,-7.87
2022-12-18T17:39:27.109Z,-7.92
2022-12-18T17:42:17.235Z,-7.97
2022-12-18T17:45:16.441Z,-8.02
2022-12-18T17:47:49.174Z,-8.04
2022-12-18T17:51:13.237Z,-8.07
2022-12-18T17:54:06.289Z,-8.09
2022-12-18T17:56:57.476Z,-8.11
2022-12-18T17:59:29.358Z,-8.13
2022-12-18T18:02:26.532Z,-8.16
2022-12-18T18:05:16.331Z,-8.16
2022-12-18T18:08:09.122Z,-8.17
2022-12-18T18:11:21.623Z,-8.19
2022-12-18T18:14:01.584Z,-8.19
2022-12-18T18:16:56.293Z,-8.21
2022-12-18T18:19:27.761Z,-8.22
2022-12-18T18:22:13.115Z,-8.25
2022-12-18T18:24:49.961Z,-8.26
2022-12-18T18:27:40.479Z,-8.28
2022-12-18T18:30:34.045Z,-8.30
2022-12-18T18:33:32.887Z,-8.32
2022-12-18T18:36:28.706Z,-8.33
2022-12-18T18:39:09.084Z,-8.34
2022-12-18T18:42:03.416Z,-8.37
2022-12-18T18:44:55.497Z,-8.38
2022-12-18T18:47:30.903Z,-8.41
2022-12-18T18:50:22.528Z,-8.44
2022-12-18T18:53:14.925Z,-8.49
2022-12-18T18:59:19.471Z,-8.57
2022-12-18T19:02:31.546Z,-8.59
2022-12-18T19:05:28.962Z,-8.62
2022-12-18T19:08:24.151Z,-8.63
2022-12-18T19:10:58.794Z,-8.64
2022-12-18T19:13:50.237Z,-8.63
2022-12-18T19:16:44.634Z,-8.63
2022-12-18T19:19:26.861Z,-8.65
2022-12-18T19:22:21.759Z,-8.65
2022-12-18T19:25:06.032Z,-8.66
2022-12-18T19:28:05.609Z,-8.65
2022-12-18T19:31:02.142Z,-8.64
2022-12-18T19:33:50.436Z,-8.65
2022-12-18T19:36:59.723Z,-8.64
2022-12-18T19:39:52.858Z,-8.63
2022-12-18T19:42:45.333Z,-8.64
2022-12-18T19:45:46.520Z,-8.65
2022-12-18T19:48:30.087Z,-8.68
2022-12-18T19:51:35.742Z,-8.70
2022-12-18T19:54:06.869Z,-8.70
2022-12-18T19:57:10.251Z,-8.72
2022-12-18T20:00:10.852Z,-8.76
2022-12-18T20:03:27.376Z,-8.78
2022-12-18T20:06:26.394Z,-8.81
2022-12-18T20:09:23.314Z,-8.85
2022-12-18T20:12:16.513Z,-8.88
2022-12-18T20:15:18.442Z,-8.92
2022-12-18T20:18:12.688Z,-8.95
2022-12-18T20:21:15.833Z,-8.97
2022-12-18T20:24:10.567Z,-9.00
2022-12-18T20:27:14.611Z,-9.03
2022-12-18T20:30:27.670Z,-9.05
2022-12-18T20:33:47.703Z,-9.05
2022-12-18T20:36:58.880Z,-9.09
2022-12-18T20:40:03.107Z,-9.08
2022-12-18T20:42:58.425Z,-9.09
2022-12-18T20:45:52.454Z,-9.11
2022-12-18T20:48:48.989Z,-9.11
2022-12-18T20:51:25.379Z,-9.10
2022-12-18T20:54:11.654Z,-9.10
2022-12-18T20:56:46.776Z,-9.08
2022-12-18T20:59:21.293Z,-9.08
2022-12-18T21:02:01.076Z,-9.09
2022-12-18T21:05:08.127Z,-9.08
2022-12-18T21:08:01.200Z,-9.09
2022-12-18T21:10:54.536Z,-9.11
2022-12-18T21:13:37.435Z,-9.12
2022-12-18T21:16:30.513Z,-9.12
2022-12-18T21:19:22.837Z,-9.14
2022-12-18T21:22:13.081Z,-9.15
2022-12-18T21:25:14.606Z,-9.17
2022-12-18T21:28:12.693Z,-9.19
2022-12-18T21:31:11.168Z,-9.18
2022-12-18T21:33:49.411Z,-9.17
2022-12-18T21:36:20.361Z,-9.16
2022-12-18T21:39:13.224Z,-9.15
2022-12-18T21:42:27.451Z,-9.12
2022-12-18T21:44:59.866Z,-9.11
2022-12-18T21:47:54.771Z,-9.07
2022-12-18T21:50:46.225Z,-9.05
2022-12-18T21:53:34.660Z,-9.03
2022-12-18T21:56:25.007Z,-9.01
2022-12-18T21:59:37.079Z,-8.97
2022-12-18T22:02:16.067Z,-8.93
2022-12-18T22:05:18.036Z,-8.90
2022-12-18T22:08:10.479Z,-8.89
2022-12-18T22:11:01.320Z,-8.89
2022-12-18T22:13:57.123Z,-8.87
2022-12-18T22:16:42.493Z,-8.86
2022-12-18T22:19:41.055Z,-8.86
2022-12-18T22:22:38.377Z,-8.84
2022-12-18T22:25:46.716Z,-8.83
2022-12-18T22:29:02.744Z,-8.82
2022-12-18T22:31:52.634Z,-8.80
2022-12-18T22:34:42.738Z,-8.78
2022-12-18T22:37:35.672Z,-8.77
2022-12-18T22:40:26.552Z,-8.78
2022-12-18T22:43:04.028Z,-8.80
2022-12-18T22:45:54.336Z,-8.83
2022-12-18T22:48:45.729Z,-8.86
2022-12-18T22:51:36.847Z,-8.90
2022-12-18T22:54:25.974Z,-8.94
2022-12-18T22:57:14.862Z,-8.97
2022-12-18T23:00:07.332Z,-9.02
2022-12-18T23:03:02.242Z,-9.07
2022-12-18T23:05:35.226Z,-9.11
2022-12-18T23:08:24.861Z,-9.16
2022-12-18T23:11:14.432Z,-9.20
2022-12-18T23:14:06.411Z,-9.24
2022-12-18T23:17:06.678Z,-9.26
2022-12-18T23:19:36.179Z,-9.29
2022-12-18T23:22:27.799Z,-9.31
2022-12-18T23:24:55.789Z,-9.36
2022-12-18T23:27:44.162Z,-9.39
2022-12-18T23:30:36.138Z,-9.42
2022-12-18T23:33:31.341Z,-9.44
2022-12-18T23:36:23.429Z,-9.47
2022-12-18T23:39:29.379Z,-9.48
2022-12-18T23:42:25.347Z,-9.52
2022-12-18T23:45:18.075Z,-9.54
2022-12-18T23:48:11.743Z,-9.57
2022-12-18T23:51:06.507Z,-9.60
2022-12-18T23:53:56.919Z,-9.64
2022-12-18T23:56:50.360Z,-9.67
2022-12-18T23:59:38.728Z,-9.69
